Time;durP1;ratioP1;P1;durP2;ratioP2;P2;SDS_P1;SDS_P2;PMS_P1;PMS_P2;Temp;Humidity;BMP_temperature;BMP_pressure;BME280_temperature;BME280_humidity;BME280_pressure;Samples;Min_cycle;Max_cycle;Signal;HPM_P1;HPM_P2
2023/12/24 00:01:34;;;;;;;;;;;;;;;;;;109524;1254;59740;-80
2023/12/24 00:04:02;;;;;;;;;;;;;;;;;;108372;1254;60658;-80
2023/12/24 00:06:28;;;;;;;;;;;;;;;;;;106813;1254;61738;-80
2023/12/24 00:08:54;;;;;;;;;;;;;;;;;;106869;1254;60657;-81
2023/12/24 00:11:21;;;;;;;;;;;;;;;;;;106898;1254;61170;-80
2023/12/24 00:13:47;;;;;;;;;;;;;;;;;;106931;1256;62892;-80
2023/12/24 00:16:14;;;;;;;;;;;;;;;;;;106836;1254;60656;-81
2023/12/24 00:18:40;;;;;;;;;;;;;;;;;;106878;1253;61638;-81
2023/12/24 00:21:07;;;;;;;;;;;;;;;;;;106906;1256;61819;-80
2023/12/24 00:23:33;;;;;;;;;;;;;;;;;;106894;1254;61751;-81
2023/12/24 00:26:00;;;;;;;;;;;;;;;;;;106921;1254;60590;-81
2023/12/24 00:28:26;;;;;;;;;;;;;;;;;;106947;1254;61754;-80
2023/12/24 00:30:53;;;;;;;;;;;;;;;;;;106915;1254;60621;-80
2023/12/24 00:33:19;;;;;;;;;;;;;;;;;;106936;1254;60958;-81
2023/12/24 00:35:45;;;;;;;;;;;;;;;;;;106952;1254;61731;-81
2023/12/24 00:38:12;;;;;;;;;;;;;;;;;;106985;1254;60653;-80
2023/12/24 00:40:38;;;;;;;;;;;;;;;;;;106882;1256;60090;-81
2023/12/24 00:43:05;;;;;;;;;;;;;;;;;;107004;1254;61904;-83
2023/12/24 00:45:31;;;;;;;;;;;;;;;;;;107078;1254;62574;-81
2023/12/24 00:47:57;;;;;;;;;;;;;;;;;;107114;1253;62866;-81
2023/12/24 00:50:24;;;;;;;;;;;;;;;;;;107559;1256;61664;-81
2023/12/24 00:52:50;;;;;;;;;;;;;;;;;;107608;1255;62184;-80
2023/12/24 00:55:16;;;;;;;;;;;;;;;;;;107593;1253;60679;-81
2023/12/24 00:57:43;;;;;;;;;;;;;;;;;;107558;1254;61619;-81
2023/12/24 01:00:09;;;;;;;;;;;;;;;;;;107122;1253;60285;-81
2023/12/24 01:02:36;;;;;;;;;;;;;;;;;;107039;1254;61058;-80
2023/12/24 01:05:04;;;;;;;;;;;;;;;;;;107040;1254;61482;-80
2023/12/24 01:07:30;;;;;;;;;;;;;;;;;;107515;1253;60113;-82
2023/12/24 01:09:57;;;;;;;;;;;;;;;;;;107552;1254;60576;-80
2023/12/24 01:12:23;;;;;;;;;;;;;;;;;;107656;1254;61417;-81
2023/12/24 01:14:50;;;;;;;;;;;;;;;;;;107052;1257;61959;-83
2023/12/24 01:17:16;;;;;;;;;;;;;;;;;;107050;1254;60669;-80
2023/12/24 01:19:42;;;;;;;;;;;;;;;;;;107023;1252;62406;-84
2023/12/24 01:22:09;;;;;;;;;;;;;;;;;;107027;1254;61609;-81
2023/12/24 01:24:35;;;;;;;;;;;;;;;;;;107058;1256;61755;-80
2023/12/24 01:27:02;;;;;;;;;;;;;;;;;;107049;1255;61520;-81
2023/12/24 01:29:28;;;;;;;;;;;;;;;;;;107636;1254;62494;-81
2023/12/24 01:31:54;;;;;;;;;;;;;;;;;;107536;1253;62808;-81
2023/12/24 01:34:21;;;;;;;;;;;;;;;;;;107473;1254;60046;-81
2023/12/24 01:36:47;;;;;;;;;;;;;;;;;;107581;1253;60550;-80
2023/12/24 01:39:13;;;;;;;;;;;;;;;;;;107540;1254;60550;-80
2023/12/24 01:41:40;;;;;;;;;;;;;;;;;;107519;1254;60543;-82
2023/12/24 01:44:06;;;;;;;;;;;;;;;;;;107521;1256;60683;-81
2023/12/24 01:46:33;;;;;;;;;;;;;;;;;;106979;1253;60747;-81
2023/12/24 01:48:59;;;;;;;;;;;;;;;;;;107057;1254;60439;-80
2023/12/24 01:51:25;;;;;;;;;;;;;;;;;;106948;1254;61724;-80
2023/12/24 01:53:52;;;;;;;;;;;;;;;;;;107083;1254;62846;-80
2023/12/24 01:56:18;;;;;;;;;;;;;;;;;;107096;1253;62750;-80
2023/12/24 01:58:45;;;;;;;;;;;;;;;;;;107013;1254;62399;-81
2023/12/24 02:01:11;;;;;;;;;;;;;;;;;;106989;1257;60252;-80
2023/12/24 02:03:37;;;;;;;;;;;;;;;;;;107014;1255;60422;-80
2023/12/24 02:06:04;;;;;;;;;;;;;;;;;;107018;1252;60770;-81
2023/12/24 02:08:30;;;;;;;;;;;;;;;;;;107071;1256;61479;-80
2023/12/24 02:10:57;;;;;;;;;;;;;;;;;;107046;1252;60566;-80
2023/12/24 02:13:23;;;;;;;;;;;;;;;;;;107086;1254;60747;-81
2023/12/24 02:15:50;;;;;;;;;;;;;;;;;;107140;1254;60486;-80
2023/12/24 02:18:16;;;;;;;;;;;;;;;;;;107024;1254;61791;-80
2023/12/24 02:20:43;;;;;;;;;;;;;;;;;;107003;1254;60673;-81
2023/12/24 02:23:09;;;;;;;;;;;;;;;;;;106984;1253;61484;-80
2023/12/24 02:25:35;;;;;;;;;;;;;;;;;;107020;1254;60554;-81
2023/12/24 02:28:02;;;;;;;;;;;;;;;;;;106999;1254;60634;-81
2023/12/24 02:30:28;;;;;;;;;;;;;;;;;;106946;1254;60682;-80
2023/12/24 02:32:54;;;;;;;;;;;;;;;;;;107504;1254;60042;-80
2023/12/24 02:35:21;;;;;;;;;;;;;;;;;;107468;1252;59959;-81
2023/12/24 02:37:47;;;;;;;;;;;;;;;;;;107589;1256;60701;-81
2023/12/24 02:40:13;;;;;;;;;;;;;;;;;;107623;1253;60555;-81
2023/12/24 02:42:40;;;;;;;;;;;;;;;;;;107001;1254;60566;-81
2023/12/24 02:45:06;;;;;;;;;;;;;;;;;;107057;1253;61663;-81
2023/12/24 02:47:33;;;;;;;;;;;;;;;;;;107072;1254;60052;-80
2023/12/24 02:49:59;;;;;;;;;;;;;;;;;;107072;1253;62920;-81
2023/12/24 02:52:25;;;;;;;;;;;;;;;;;;107072;1254;60116;-81
2023/12/24 02:54:52;;;;;;;;;;;;;;;;;;107061;1256;60544;-81
2023/12/24 02:57:18;;;;;;;;;;;;;;;;;;107019;1254;61679;-80
2023/12/24 02:59:44;;;;;;;;;;;;;;;;;;106974;1254;60647;-81
2023/12/24 03:02:11;;;;;;;;;;;;;;;;;;106982;1253;60720;-81
2023/12/24 03:04:37;;;;;;;;;;;;;;;;;;107040;1254;60747;-81
2023/12/24 03:07:04;;;;;;;;;;;;;;;;;;106980;1254;60432;-80
2023/12/24 03:09:30;;;;;;;;;;;;;;;;;;106966;1254;62430;-80
2023/12/24 03:11:56;;;;;;;;;;;;;;;;;;106963;1254;61626;-81
2023/12/24 03:14:23;;;;;;;;;;;;;;;;;;106995;1253;61966;-80
2023/12/24 03:16:49;;;;;;;;;;;;;;;;;;107032;1253;60628;-81
2023/12/24 03:19:15;;;;;;;;;;;;;;;;;;107003;1254;62930;-80
2023/12/24 03:21:42;;;;;;;;;;;;;;;;;;107003;1254;60546;-81
2023/12/24 03:24:08;;;;;;;;;;;;;;;;;;106907;1253;60627;-80
2023/12/24 03:26:34;;;;;;;;;;;;;;;;;;106866;1254;60583;-80
2023/12/24 03:29:01;;;;;;;;;;;;;;;;;;106896;1252;62728;-80
2023/12/24 03:31:27;;;;;;;;;;;;;;;;;;106854;1253;62923;-80
2023/12/24 03:33:54;;;;;;;;;;;;;;;;;;106889;1253;62981;-80
2023/12/24 03:36:20;;;;;;;;;;;;;;;;;;106879;1256;62912;-80
2023/12/24 03:38:46;;;;;;;;;;;;;;;;;;106954;1251;60579;-80
2023/12/24 03:41:13;;;;;;;;;;;;;;;;;;106985;1251;60722;-80
2023/12/24 03:43:39;;;;;;;;;;;;;;;;;;106938;1251;62910;-80
2023/12/24 03:46:06;;;;;;;;;;;;;;;;;;107004;1252;60689;-80
2023/12/24 03:48:32;;;;;;;;;;;;;;;;;;107017;1254;61683;-80
2023/12/24 03:50:58;;;;;;;;;;;;;;;;;;106951;1254;61788;-80
2023/12/24 03:53:25;;;;;;;;;;;;;;;;;;106929;1253;61753;-80
2023/12/24 03:55:51;;;;;;;;;;;;;;;;;;106871;1253;60490;-80
2023/12/24 03:58:17;;;;;;;;;;;;;;;;;;106891;1254;61814;-80
2023/12/24 04:00:44;;;;;;;;;;;;;;;;;;106847;1256;62869;-80
2023/12/24 04:03:11;;;;;;;;;;;;;;;;;;106844;1252;60676;-80
2023/12/24 04:05:37;;;;;;;;;;;;;;;;;;106795;1254;62580;-80
2023/12/24 04:08:04;;;;;;;;;;;;;;;;;;106885;1254;60062;-81
2023/12/24 04:10:31;;;;;;;;;;;;;;;;;;106823;1253;62860;-80
2023/12/24 04:12:57;;;;;;;;;;;;;;;;;;106885;1253;61551;-80
2023/12/24 04:15:24;;;;;;;;;;;;;;;;;;106952;1254;61832;-80
2023/12/24 04:17:50;;;;;;;;;;;;;;;;;;106892;1254;61664;-80
2023/12/24 04:20:16;;;;;;;;;;;;;;;;;;106942;1252;60660;-80
2023/12/24 04:22:43;;;;;;;;;;;;;;;;;;106866;1254;61703;-81
2023/12/24 04:25:09;;;;;;;;;;;;;;;;;;106944;1254;60603;-81
2023/12/24 04:27:35;;;;;;;;;;;;;;;;;;106870;1254;62931;-81
2023/12/24 04:30:02;;;;;;;;;;;;;;;;;;106895;1253;62869;-81
2023/12/24 04:32:28;;;;;;;;;;;;;;;;;;106898;1253;63326;-80
2023/12/24 04:34:55;;;;;;;;;;;;;;;;;;106886;1253;60569;-81
2023/12/24 04:37:21;;;;;;;;;;;;;;;;;;106877;1254;61696;-80
2023/12/24 04:39:47;;;;;;;;;;;;;;;;;;106844;1254;60708;-80
2023/12/24 04:42:14;;;;;;;;;;;;;;;;;;106876;1256;62265;-81
2023/12/24 04:44:40;;;;;;;;;;;;;;;;;;106921;1256;61683;-81
2023/12/24 04:47:07;;;;;;;;;;;;;;;;;;106889;1254;60476;-81
2023/12/24 04:49:33;;;;;;;;;;;;;;;;;;107502;1253;61909;-80
2023/12/24 04:52:00;;;;;;;;;;;;;;;;;;106889;1254;60588;-80
2023/12/24 04:54:26;;;;;;;;;;;;;;;;;;106926;1256;61638;-80
2023/12/24 04:56:53;;;;;;;;;;;;;;;;;;107003;1254;61583;-81
2023/12/24 04:59:20;;;;;;;;;;;;;;;;;;106858;1254;62930;-81
2023/12/24 05:01:47;;;;;;;;;;;;;;;;;;106888;1253;62818;-80
2023/12/24 05:04:13;;;;;;;;;;;;;;;;;;106815;1254;60571;-80
2023/12/24 05:06:40;;;;;;;;;;;;;;;;;;106862;1254;62990;-80
2023/12/24 05:09:07;;;;;;;;;;;;;;;;;;106850;1254;61260;-80
2023/12/24 05:11:33;;;;;;;;;;;;;;;;;;106858;1254;61457;-80
2023/12/24 05:13:59;;;;;;;;;;;;;;;;;;106913;1254;60614;-81
2023/12/24 05:16:26;;;;;;;;;;;;;;;;;;106974;1254;60244;-80
2023/12/24 05:18:52;;;;;;;;;;;;;;;;;;106860;1254;62494;-81
2023/12/24 05:21:20;;;;;;;;;;;;;;;;;;106975;1253;60684;-81
2023/12/24 05:23:46;;;;;;;;;;;;;;;;;;106923;1252;61399;-80
2023/12/24 05:26:13;;;;;;;;;;;;;;;;;;106883;1254;60060;-80
2023/12/24 05:28:39;;;;;;;;;;;;;;;;;;106882;1254;60612;-80
2023/12/24 05:31:05;;;;;;;;;;;;;;;;;;106839;1253;60634;-80
2023/12/24 05:33:32;;;;;;;;;;;;;;;;;;106874;1254;60722;-81
2023/12/24 05:35:58;;;;;;;;;;;;;;;;;;106982;1253;60479;-80
2023/12/24 05:38:25;;;;;;;;;;;;;;;;;;106850;1254;61706;-80
2023/12/24 05:40:51;;;;;;;;;;;;;;;;;;106903;1253;62856;-80
2023/12/24 05:43:18;;;;;;;;;;;;;;;;;;106807;1257;61735;-80
2023/12/24 05:45:44;;;;;;;;;;;;;;;;;;106871;1256;61995;-81
2023/12/24 05:48:10;;;;;;;;;;;;;;;;;;106904;1254;61662;-80
2023/12/24 05:50:37;;;;;;;;;;;;;;;;;;106922;1254;60700;-80
2023/12/24 05:53:03;;;;;;;;;;;;;;;;;;106908;1254;62078;-81
2023/12/24 05:55:30;;;;;;;;;;;;;;;;;;106812;1253;62958;-80
2023/12/24 05:57:56;;;;;;;;;;;;;;;;;;106955;1254;62619;-80
2023/12/24 06:00:23;;;;;;;;;;;;;;;;;;106901;1254;62622;-80
2023/12/24 06:02:49;;;;;;;;;;;;;;;;;;107997;1253;60580;-80
2023/12/24 06:05:16;;;;;;;;;;;;;;;;;;109507;1253;59657;-80
2023/12/24 06:07:42;;;;;;;;;;;;;;;;;;109462;1253;59954;-80
2023/12/24 06:10:08;;;;;;;;;;;;;;;;;;107505;1254;60637;-80
2023/12/24 06:12:36;;;;;;;;;;;;;;;;;;106830;1253;60672;-80
2023/12/24 06:15:03;;;;;;;;;;;;;;;;;;106910;1254;61684;-80
2023/12/24 06:17:29;;;;;;;;;;;;;;;;;;106876;1254;60627;-80
2023/12/24 06:19:55;;;;;;;;;;;;;;;;;;106875;1253;61753;-81
2023/12/24 06:22:22;;;;;;;;;;;;;;;;;;106932;1252;61715;-80
2023/12/24 06:24:48;;;;;;;;;;;;;;;;;;107410;1253;60546;-81
2023/12/24 06:27:15;;;;;;;;;;;;;;;;;;106909;1254;60641;-80
2023/12/24 06:29:41;;;;;;;;;;;;;;;;;;106882;1254;60610;-80
2023/12/24 06:32:07;;;;;;;;;;;;;;;;;;106785;1253;134687;-80
2023/12/24 06:34:34;;;;;;;;;;;;;;;;;;106890;1254;60643;-80
2023/12/24 06:37:00;;;;;;;;;;;;;;;;;;106954;1253;61877;-80
2023/12/24 06:39:27;;;;;;;;;;;;;;;;;;106869;1252;60636;-81
2023/12/24 06:41:54;;;;;;;;;;;;;;;;;;107008;1254;61607;-80
2023/12/24 06:44:21;;;;;;;;;;;;;;;;;;106969;1254;60642;-80
2023/12/24 06:46:47;;;;;;;;;;;;;;;;;;107032;1252;62929;-80
2023/12/24 06:49:14;;;;;;;;;;;;;;;;;;106989;1252;60602;-80
2023/12/24 06:51:40;;;;;;;;;;;;;;;;;;107013;1256;60702;-80
2023/12/24 06:54:06;;;;;;;;;;;;;;;;;;107057;1252;60664;-79
2023/12/24 06:56:33;;;;;;;;;;;;;;;;;;107289;1253;61662;-80
2023/12/24 06:58:59;;;;;;;;;;;;;;;;;;107781;1252;60571;-80
2023/12/24 07:01:25;;;;;;;;;;;;;;;;;;107918;1252;61023;-81
2023/12/24 07:03:52;;;;;;;;;;;;;;;;;;108398;1254;60525;-81
2023/12/24 07:06:18;;;;;;;;;;;;;;;;;;108562;1252;60255;-79
2023/12/24 07:08:45;;;;;;;;;;;;;;;;;;108659;1253;60538;-80
2023/12/24 07:11:11;;;;;;;;;;;;;;;;;;107236;1254;60644;-81
2023/12/24 07:13:37;;;;;;;;;;;;;;;;;;107258;1254;60694;-81
2023/12/24 07:16:04;;;;;;;;;;;;;;;;;;107133;1252;61254;-80
2023/12/24 07:18:30;;;;;;;;;;;;;;;;;;107032;1253;60578;-80
2023/12/24 07:20:56;;;;;;;;;;;;;;;;;;106953;1253;60353;-80
2023/12/24 07:23:23;;;;;;;;;;;;;;;;;;106884;1253;61715;-80
2023/12/24 07:25:50;;;;;;;;;;;;;;;;;;106917;1254;60611;-79
2023/12/24 07:28:16;;;;;;;;;;;;;;;;;;106854;1256;61009;-80
2023/12/24 07:30:42;;;;;;;;;;;;;;;;;;106841;1254;61738;-80
2023/12/24 07:33:09;;;;;;;;;;;;;;;;;;106876;1253;60638;-80
2023/12/24 07:35:35;;;;;;;;;;;;;;;;;;106913;1254;61745;-80
2023/12/24 07:38:02;;;;;;;;;;;;;;;;;;106905;1252;62808;-80
2023/12/24 07:40:28;;;;;;;;;;;;;;;;;;106977;1254;62920;-80
2023/12/24 07:42:57;;;;;;;;;;;;;;;;;;107424;1254;62937;-80
2023/12/24 07:45:24;;;;;;;;;;;;;;;;;;106889;1252;61635;-81
2023/12/24 07:47:50;;;;;;;;;;;;;;;;;;106961;1253;62994;-81
2023/12/24 07:50:17;;;;;;;;;;;;;;;;;;107015;1254;60577;-81
2023/12/24 07:52:43;;;;;;;;;;;;;;;;;;107081;1254;60640;-80
2023/12/24 07:55:10;;;;;;;;;;;;;;;;;;107102;1254;60632;-80
2023/12/24 07:57:36;;;;;;;;;;;;;;;;;;107495;1253;60544;-81
2023/12/24 08:00:02;;;;;;;;;;;;;;;;;;109460;1253;59734;-81
2023/12/24 08:02:29;;;;;;;;;;;;;;;;;;108420;1253;59604;-81
2023/12/24 08:04:55;;;;;;;;;;;;;;;;;;108497;1253;59933;-81
2023/12/24 08:07:23;;;;;;;;;;;;;;;;;;108886;1253;61487;-81
2023/12/24 08:09:49;;;;;;;;;;;;;;;;;;109469;1254;59812;-80
2023/12/24 08:12:17;;;;;;;;;;;;;;;;;;109436;1253;60073;-81
2023/12/24 08:14:43;;;;;;;;;;;;;;;;;;107137;1254;61354;-80
2023/12/24 08:17:10;;;;;;;;;;;;;;;;;;109005;1252;59719;-80
2023/12/24 08:19:36;;;;;;;;;;;;;;;;;;109500;1253;59694;-80
2023/12/24 08:22:03;;;;;;;;;;;;;;;;;;109480;1252;59689;-80
2023/12/24 08:24:29;;;;;;;;;;;;;;;;;;109449;1253;59950;-80
2023/12/24 08:26:56;;;;;;;;;;;;;;;;;;109497;1252;60057;-80
2023/12/24 08:29:22;;;;;;;;;;;;;;;;;;109482;1253;61661;-81
2023/12/24 08:31:49;;;;;;;;;;;;;;;;;;109516;1252;59645;-80
2023/12/24 08:34:15;;;;;;;;;;;;;;;;;;108249;1253;60639;-80
2023/12/24 08:36:42;;;;;;;;;;;;;;;;;;106836;1254;60654;-80
2023/12/24 08:39:09;;;;;;;;;;;;;;;;;;108218;1253;61653;-80
2023/12/24 08:41:35;;;;;;;;;;;;;;;;;;107034;1252;61197;-81
2023/12/24 08:44:01;;;;;;;;;;;;;;;;;;107316;1253;61885;-80
2023/12/24 08:46:28;;;;;;;;;;;;;;;;;;109499;1253;59722;-80
2023/12/24 08:48:54;;;;;;;;;;;;;;;;;;108839;1254;60717;-80
2023/12/24 08:51:21;;;;;;;;;;;;;;;;;;106914;1254;60630;-80
2023/12/24 08:53:47;;;;;;;;;;;;;;;;;;106955;1255;60701;-80
2023/12/24 08:56:14;;;;;;;;;;;;;;;;;;106905;1254;61749;-81
2023/12/24 08:58:40;;;;;;;;;;;;;;;;;;106998;1253;60603;-80
2023/12/24 09:01:06;;;;;;;;;;;;;;;;;;106962;1254;60695;-81
2023/12/24 09:03:33;;;;;;;;;;;;;;;;;;106940;1254;60651;-80
2023/12/24 09:05:59;;;;;;;;;;;;;;;;;;107116;1253;60654;-81
2023/12/24 09:08:26;;;;;;;;;;;;;;;;;;109212;1253;60573;-81
2023/12/24 09:10:52;;;;;;;;;;;;;;;;;;106932;1254;60767;-80
2023/12/24 09:13:18;;;;;;;;;;;;;;;;;;106935;1254;61833;-80
2023/12/24 09:15:45;;;;;;;;;;;;;;;;;;106981;1253;60573;-80
2023/12/24 09:18:11;;;;;;;;;;;;;;;;;;106928;1254;60671;-81
2023/12/24 09:20:38;;;;;;;;;;;;;;;;;;106909;1253;62872;-81
2023/12/24 09:23:04;;;;;;;;;;;;;;;;;;106897;1253;61762;-80
2023/12/24 09:25:30;;;;;;;;;;;;;;;;;;106939;1254;61692;-80
2023/12/24 09:27:57;;;;;;;;;;;;;;;;;;106981;1254;61620;-80
2023/12/24 09:30:24;;;;;;;;;;;;;;;;;;106974;1254;62768;-80
2023/12/24 09:32:51;;;;;;;;;;;;;;;;;;108020;1253;62716;-80
2023/12/24 09:35:17;;;;;;;;;;;;;;;;;;109454;1252;59721;-80
2023/12/24 09:37:44;;;;;;;;;;;;;;;;;;109456;1253;59970;-80
2023/12/24 09:40:10;;;;;;;;;;;;;;;;;;109510;1253;59732;-79
2023/12/24 09:42:37;;;;;;;;;;;;;;;;;;107896;1254;62555;-80
2023/12/24 09:45:03;;;;;;;;;;;;;;;;;;108235;1253;59977;-80
2023/12/24 09:47:29;;;;;;;;;;;;;;;;;;109486;1252;59600;-80
2023/12/24 09:49:58;;;;;;;;;;;;;;;;;;108920;1253;59632;-81
2023/12/24 09:52:26;;;;;;;;;;;;;;;;;;108391;1253;60716;-80
2023/12/24 09:54:52;;;;;;;;;;;;;;;;;;108853;1253;61510;-80
2023/12/24 09:57:19;;;;;;;;;;;;;;;;;;109324;1254;59900;-80
2023/12/24 09:59:45;;;;;;;;;;;;;;;;;;109451;1252;60024;-80
2023/12/24 10:02:11;;;;;;;;;;;;;;;;;;109482;1253;59910;-80
2023/12/24 10:04:38;;;;;;;;;;;;;;;;;;109456;1253;59644;-80
2023/12/24 10:07:06;;;;;;;;;;;;;;;;;;109505;1253;59694;-80
2023/12/24 10:09:33;;;;;;;;;;;;;;;;;;109483;1252;60046;-80
2023/12/24 10:11:59;;;;;;;;;;;;;;;;;;109465;1253;59888;-80
2023/12/24 10:14:25;;;;;;;;;;;;;;;;;;109459;1252;59822;-80
2023/12/24 10:16:52;;;;;;;;;;;;;;;;;;109484;1253;59705;-80
2023/12/24 10:19:18;;;;;;;;;;;;;;;;;;107748;1252;61644;-80
2023/12/24 10:21:45;;;;;;;;;;;;;;;;;;109240;1254;59946;-81
2023/12/24 10:24:11;;;;;;;;;;;;;;;;;;108208;1253;60061;-80
2023/12/24 10:26:38;;;;;;;;;;;;;;;;;;109493;1253;59905;-80
2023/12/24 10:29:04;;;;;;;;;;;;;;;;;;107203;1253;61094;-80
2023/12/24 10:31:30;;;;;;;;;;;;;;;;;;106923;1254;62852;-80
2023/12/24 10:33:57;;;;;;;;;;;;;;;;;;107056;1251;62693;-80
2023/12/24 10:36:23;;;;;;;;;;;;;;;;;;107088;1251;60540;-80
2023/12/24 10:38:49;;;;;;;;;;;;;;;;;;107030;1251;62778;-80
2023/12/24 10:41:16;;;;;;;;;;;;;;;;;;107092;1251;61434;-80
2023/12/24 10:43:42;;;;;;;;;;;;;;;;;;107017;1251;60756;-81
2023/12/24 10:46:08;;;;;;;;;;;;;;;;;;106993;1251;62028;-80
2023/12/24 10:48:35;;;;;;;;;;;;;;;;;;107020;1251;60647;-80
2023/12/24 10:51:01;;;;;;;;;;;;;;;;;;108208;1251;60625;-80
2023/12/24 10:53:28;;;;;;;;;;;;;;;;;;109504;1252;59962;-80
2023/12/24 10:55:54;;;;;;;;;;;;;;;;;;109477;1254;60137;-80
2023/12/24 10:58:21;;;;;;;;;;;;;;;;;;109534;1254;59810;-80
2023/12/24 11:00:47;;;;;;;;;;;;;;;;;;109470;1252;59691;-80
2023/12/24 11:03:13;;;;;;;;;;;;;;;;;;109403;1253;59712;-80
2023/12/24 11:05:40;;;;;;;;;;;;;;;;;;109487;1253;59513;-79
2023/12/24 11:08:06;;;;;;;;;;;;;;;;;;109094;1254;60696;-79
2023/12/24 11:10:33;;;;;;;;;;;;;;;;;;106865;1254;61391;-81
2023/12/24 11:12:59;;;;;;;;;;;;;;;;;;106862;1254;60642;-79
2023/12/24 11:15:25;;;;;;;;;;;;;;;;;;106917;1254;60830;-80
2023/12/24 11:17:52;;;;;;;;;;;;;;;;;;106975;1254;60619;-80
2023/12/24 11:20:19;;;;;;;;;;;;;;;;;;106902;1252;60650;-81
2023/12/24 11:22:45;;;;;;;;;;;;;;;;;;106908;1254;60453;-80
2023/12/24 11:25:13;;;;;;;;;;;;;;;;;;106890;1253;60604;-80
2023/12/24 11:27:39;;;;;;;;;;;;;;;;;;107020;1254;61836;-79
2023/12/24 11:30:07;;;;;;;;;;;;;;;;;;106942;1253;61535;-80
2023/12/24 11:32:33;;;;;;;;;;;;;;;;;;106855;1254;60515;-80
2023/12/24 11:35:00;;;;;;;;;;;;;;;;;;106889;1254;61587;-80
2023/12/24 11:37:26;;;;;;;;;;;;;;;;;;107925;1253;62680;-80
2023/12/24 11:39:53;;;;;;;;;;;;;;;;;;107343;1252;60987;-79
2023/12/24 11:42:19;;;;;;;;;;;;;;;;;;106913;1256;60087;-79
2023/12/24 11:44:46;;;;;;;;;;;;;;;;;;106922;1253;60172;-79
2023/12/24 11:47:12;;;;;;;;;;;;;;;;;;109482;1252;59839;-79
2023/12/24 11:49:40;;;;;;;;;;;;;;;;;;109508;1254;59776;-81
2023/12/24 11:52:07;;;;;;;;;;;;;;;;;;109499;1252;60018;-80
2023/12/24 11:54:33;;;;;;;;;;;;;;;;;;107747;1253;62120;-80
2023/12/24 11:56:59;;;;;;;;;;;;;;;;;;106851;1254;61674;-80
2023/12/24 11:59:26;;;;;;;;;;;;;;;;;;106811;1253;61741;-80
2023/12/24 12:01:52;;;;;;;;;;;;;;;;;;106869;1254;61787;-79
2023/12/24 12:04:18;;;;;;;;;;;;;;;;;;106848;1252;62948;-79
2023/12/24 12:06:47;;;;;;;;;;;;;;;;;;106851;1252;61695;-79
2023/12/24 12:09:14;;;;;;;;;;;;;;;;;;106859;1256;63861;-80
2023/12/24 12:11:41;;;;;;;;;;;;;;;;;;106833;1254;61683;-80
2023/12/24 12:14:07;;;;;;;;;;;;;;;;;;106907;1253;61665;-79
2023/12/24 12:16:34;;;;;;;;;;;;;;;;;;106892;1252;60605;-79
2023/12/24 12:19:01;;;;;;;;;;;;;;;;;;106916;1254;60547;-79
2023/12/24 12:21:27;;;;;;;;;;;;;;;;;;106938;1254;60630;-80
2023/12/24 12:23:53;;;;;;;;;;;;;;;;;;106915;1253;61668;-80
2023/12/24 12:26:20;;;;;;;;;;;;;;;;;;106866;1253;61770;-80
2023/12/24 12:28:46;;;;;;;;;;;;;;;;;;106974;1253;60642;-80
2023/12/24 12:31:13;;;;;;;;;;;;;;;;;;106890;1254;60590;-80
2023/12/24 12:33:39;;;;;;;;;;;;;;;;;;107697;1253;62747;-80
2023/12/24 12:36:07;;;;;;;;;;;;;;;;;;109532;1254;59872;-80
2023/12/24 12:38:33;;;;;;;;;;;;;;;;;;109442;1253;59704;-80
2023/12/24 12:40:59;;;;;;;;;;;;;;;;;;109486;1252;59768;-80
2023/12/24 12:43:26;;;;;;;;;;;;;;;;;;109513;1252;59620;-80
2023/12/24 12:45:52;;;;;;;;;;;;;;;;;;109472;1254;60011;-80
2023/12/24 12:48:18;;;;;;;;;;;;;;;;;;109523;1253;59634;-80
2023/12/24 12:50:45;;;;;;;;;;;;;;;;;;109478;1253;59943;-80
2023/12/24 12:53:11;;;;;;;;;;;;;;;;;;106973;1252;61743;-80
2023/12/24 12:55:38;;;;;;;;;;;;;;;;;;106859;1254;60089;-80
2023/12/24 12:58:04;;;;;;;;;;;;;;;;;;106846;1254;60624;-80
2023/12/24 13:00:30;;;;;;;;;;;;;;;;;;106870;1254;61330;-80
2023/12/24 13:02:57;;;;;;;;;;;;;;;;;;106953;1253;60656;-79
2023/12/24 13:05:23;;;;;;;;;;;;;;;;;;109480;1253;60313;-80
2023/12/24 13:07:50;;;;;;;;;;;;;;;;;;109508;1254;59718;-80
2023/12/24 13:10:16;;;;;;;;;;;;;;;;;;109518;1254;61713;-80
2023/12/24 13:12:42;;;;;;;;;;;;;;;;;;109484;1253;59868;-80
2023/12/24 13:15:09;;;;;;;;;;;;;;;;;;109473;1254;59732;-80
2023/12/24 13:17:35;;;;;;;;;;;;;;;;;;107002;1254;61645;-80
2023/12/24 13:20:02;;;;;;;;;;;;;;;;;;106914;1254;60868;-80
2023/12/24 13:22:30;;;;;;;;;;;;;;;;;;106908;1254;60378;-80
2023/12/24 13:24:59;;;;;;;;;;;;;;;;;;109081;1253;59989;-80
2023/12/24 13:27:25;;;;;;;;;;;;;;;;;;109503;1254;59722;-80
2023/12/24 13:29:51;;;;;;;;;;;;;;;;;;109491;1252;60106;-80
2023/12/24 13:32:18;;;;;;;;;;;;;;;;;;109415;1254;59599;-81
2023/12/24 13:34:44;;;;;;;;;;;;;;;;;;106934;1254;60724;-80
2023/12/24 13:37:12;;;;;;;;;;;;;;;;;;106880;1254;60184;-80
2023/12/24 13:39:39;;;;;;;;;;;;;;;;;;106874;1256;60637;-80
2023/12/24 13:42:05;;;;;;;;;;;;;;;;;;106870;1254;61654;-80
2023/12/24 13:44:31;;;;;;;;;;;;;;;;;;106865;1253;61604;-80
2023/12/24 13:46:58;;;;;;;;;;;;;;;;;;106918;1256;60544;-80
2023/12/24 13:49:27;;;;;;;;;;;;;;;;;;106950;1254;60618;-80
2023/12/24 13:51:54;;;;;;;;;;;;;;;;;;106984;1254;61610;-79
2023/12/24 13:54:23;;;;;;;;;;;;;;;;;;106883;1254;62781;-80
2023/12/24 13:56:50;;;;;;;;;;;;;;;;;;106912;1253;61676;-80
2023/12/24 13:59:17;;;;;;;;;;;;;;;;;;106947;1254;62886;-80
2023/12/24 14:01:43;;;;;;;;;;;;;;;;;;106902;1254;60613;-80
2023/12/24 14:04:09;;;;;;;;;;;;;;;;;;106898;1254;60017;-80
2023/12/24 14:06:36;;;;;;;;;;;;;;;;;;106842;1254;61457;-80
2023/12/24 14:09:03;;;;;;;;;;;;;;;;;;106897;1254;60710;-79
2023/12/24 14:11:29;;;;;;;;;;;;;;;;;;107059;1254;60651;-80
2023/12/24 14:13:56;;;;;;;;;;;;;;;;;;106929;1254;61712;-80
2023/12/24 14:16:22;;;;;;;;;;;;;;;;;;106874;1254;61184;-80
2023/12/24 14:18:53;;;;;;;;;;;;;;;;;;106868;1254;62793;-80
2023/12/24 14:21:20;;;;;;;;;;;;;;;;;;106979;1254;60617;-80
2023/12/24 14:23:46;;;;;;;;;;;;;;;;;;106851;1258;60623;-80
2023/12/24 14:26:12;;;;;;;;;;;;;;;;;;106916;1254;60728;-80
2023/12/24 14:28:39;;;;;;;;;;;;;;;;;;106863;1254;60647;-80
2023/12/24 14:31:06;;;;;;;;;;;;;;;;;;106925;1253;60501;-80
2023/12/24 14:33:32;;;;;;;;;;;;;;;;;;106882;1252;61760;-80
2023/12/24 14:35:58;;;;;;;;;;;;;;;;;;106884;1254;60572;-79
2023/12/24 14:38:25;;;;;;;;;;;;;;;;;;106969;1255;61616;-80
2023/12/24 14:40:51;;;;;;;;;;;;;;;;;;106896;1252;60577;-81
2023/12/24 14:43:17;;;;;;;;;;;;;;;;;;106853;1256;60470;-81
2023/12/24 14:45:44;;;;;;;;;;;;;;;;;;106892;1256;60635;-80
2023/12/24 14:48:11;;;;;;;;;;;;;;;;;;107523;1254;60332;-81
2023/12/24 14:50:38;;;;;;;;;;;;;;;;;;107503;1254;61611;-80
2023/12/24 14:53:04;;;;;;;;;;;;;;;;;;107417;1256;60577;-80
2023/12/24 14:55:30;;;;;;;;;;;;;;;;;;107468;1254;61824;-80
2023/12/24 14:57:57;;;;;;;;;;;;;;;;;;106950;1254;62111;-80
2023/12/24 15:00:23;;;;;;;;;;;;;;;;;;106920;1254;61833;-80
2023/12/24 15:02:50;;;;;;;;;;;;;;;;;;106899;1253;60691;-79
2023/12/24 15:05:17;;;;;;;;;;;;;;;;;;106905;1252;62299;-80
2023/12/24 15:07:43;;;;;;;;;;;;;;;;;;106920;1256;62150;-80
2023/12/24 15:10:10;;;;;;;;;;;;;;;;;;106907;1254;60154;-80
2023/12/24 15:12:36;;;;;;;;;;;;;;;;;;106927;1254;62834;-80
2023/12/24 15:15:02;;;;;;;;;;;;;;;;;;106926;1254;61692;-80
2023/12/24 15:17:30;;;;;;;;;;;;;;;;;;106857;1256;60728;-80
2023/12/24 15:19:56;;;;;;;;;;;;;;;;;;106895;1254;60840;-80
2023/12/24 15:22:23;;;;;;;;;;;;;;;;;;106860;1253;60455;-80
2023/12/24 15:24:49;;;;;;;;;;;;;;;;;;106828;1254;63443;-80
2023/12/24 15:27:16;;;;;;;;;;;;;;;;;;106880;1254;61582;-80
2023/12/24 15:29:42;;;;;;;;;;;;;;;;;;106870;1254;61807;-80
2023/12/24 15:32:09;;;;;;;;;;;;;;;;;;106858;1254;60651;-80
2023/12/24 15:34:36;;;;;;;;;;;;;;;;;;106872;1254;60496;-80
2023/12/24 15:37:03;;;;;;;;;;;;;;;;;;106888;1254;61512;-80
2023/12/24 15:39:29;;;;;;;;;;;;;;;;;;106973;1254;61703;-80
2023/12/24 15:41:56;;;;;;;;;;;;;;;;;;106926;1254;61674;-80
2023/12/24 15:44:23;;;;;;;;;;;;;;;;;;106903;1254;61186;-80
2023/12/24 15:46:50;;;;;;;;;;;;;;;;;;106937;1254;60301;-82
2023/12/24 15:49:16;;;;;;;;;;;;;;;;;;106888;1254;61437;-80
2023/12/24 15:51:43;;;;;;;;;;;;;;;;;;106902;1254;60651;-80
2023/12/24 15:54:09;;;;;;;;;;;;;;;;;;106842;1256;61839;-81
2023/12/24 15:56:36;;;;;;;;;;;;;;;;;;106866;1256;62873;-81
2023/12/24 15:59:02;;;;;;;;;;;;;;;;;;106880;1254;60592;-80
2023/12/24 16:01:28;;;;;;;;;;;;;;;;;;106825;1254;60712;-80
2023/12/24 16:03:55;;;;;;;;;;;;;;;;;;106938;1256;61636;-80
2023/12/24 16:06:21;;;;;;;;;;;;;;;;;;106923;1254;61855;-80
2023/12/24 16:08:50;;;;;;;;;;;;;;;;;;106994;1254;60664;-81
2023/12/24 16:11:18;;;;;;;;;;;;;;;;;;106952;1254;61389;-81
2023/12/24 16:13:45;;;;;;;;;;;;;;;;;;107007;1257;61598;-80
2023/12/24 16:16:11;;;;;;;;;;;;;;;;;;108744;1254;60352;-80
2023/12/24 16:18:37;;;;;;;;;;;;;;;;;;107655;1253;61879;-80
2023/12/24 16:21:04;;;;;;;;;;;;;;;;;;106923;1256;61657;-81
2023/12/24 16:23:30;;;;;;;;;;;;;;;;;;106920;1256;61742;-80